sensor_id;sensor_type;location;lat;lon;timestamp;P1;durP1;ratioP1;P2;durP2;ratioP2
9481;SDS011;4779;48.062;11.672;2024-01-15T00:01:55;6.13;;;4.30;;
9481;SDS011;4779;48.062;11.672;2024-01-15T00:04:23;5.53;;;4.20;;
9481;SDS011;4779;48.062;11.672;2024-01-15T00:06:50;6.03;;;4.10;;
9481;SDS011;4779;48.062;11.672;2024-01-15T00:09:17;5.77;;;4.07;;
9481;SDS011;4779;48.062;11.672;2024-01-15T00:11:44;5.57;;;4.37;;
9481;SDS011;4779;48.062;11.672;2024-01-15T00:14:11;8.30;;;4.80;;
9481;SDS011;4779;48.062;11.672;2024-01-15T00:16:41;6.47;;;4.30;;
9481;SDS011;4779;48.062;11.672;2024-01-15T00:19:08;6.73;;;4.67;;
9481;SDS011;4779;48.062;11.672;2024-01-15T00:21:35;7.87;;;4.87;;
9481;SDS011;4779;48.062;11.672;2024-01-15T00:24:02;7.53;;;4.57;;
9481;SDS011;4779;48.062;11.672;2024-01-15T00:26:29;7.70;;;5.07;;
9481;SDS011;4779;48.062;11.672;2024-01-15T00:28:56;6.97;;;4.57;;
9481;SDS011;4779;48.062;11.672;2024-01-15T00:31:23;7.07;;;4.67;;
9481;SDS011;4779;48.062;11.672;2024-01-15T00:33:52;7.77;;;4.90;;
9481;SDS011;4779;48.062;11.672;2024-01-15T00:36:19;7.43;;;5.23;;
9481;SDS011;4779;48.062;11.672;2024-01-15T00:38:46;6.67;;;5.20;;
9481;SDS011;4779;48.062;11.672;2024-01-15T00:41:13;7.40;;;5.00;;
9481;SDS011;4779;48.062;11.672;2024-01-15T00:43:40;7.73;;;5.10;;
9481;SDS011;4779;48.062;11.672;2024-01-15T00:46:07;7.97;;;5.40;;
9481;SDS011;4779;48.062;11.672;2024-01-15T00:48:34;8.60;;;5.20;;
9481;SDS011;4779;48.062;11.672;2024-01-15T00:51:03;7.33;;;5.20;;
9481;SDS011;4779;48.062;11.672;2024-01-15T00:53:30;9.30;;;5.70;;
9481;SDS011;4779;48.062;11.672;2024-01-15T00:55:57;7.60;;;5.73;;
9481;SDS011;4779;48.062;11.672;2024-01-15T00:58:25;8.73;;;5.87;;
9481;SDS011;4779;48.062;11.672;2024-01-15T01:00:52;8.83;;;5.70;;
9481;SDS011;4779;48.062;11.672;2024-01-15T01:03:19;9.93;;;6.03;;
9481;SDS011;4779;48.062;11.672;2024-01-15T01:05:46;10.07;;;6.50;;
9481;SDS011;4779;48.062;11.672;2024-01-15T01:08:16;8.47;;;6.13;;
9481;SDS011;4779;48.062;11.672;2024-01-15T01:10:43;9.13;;;6.57;;
9481;SDS011;4779;48.062;11.672;2024-01-15T01:13:10;9.73;;;7.00;;
9481;SDS011;4779;48.062;11.672;2024-01-15T01:15:37;12.43;;;7.70;;
9481;SDS011;4779;48.062;11.672;2024-01-15T01:18:04;11.43;;;7.70;;
9481;SDS011;4779;48.062;11.672;2024-01-15T01:20:32;10.27;;;7.10;;
9481;SDS011;4779;48.062;11.672;2024-01-15T01:22:59;12.70;;;7.93;;
9481;SDS011;4779;48.062;11.672;2024-01-15T01:25:27;11.07;;;6.93;;
9481;SDS011;4779;48.062;11.672;2024-01-15T01:27:54;11.33;;;7.90;;
9481;SDS011;4779;48.062;11.672;2024-01-15T01:30:21;11.20;;;7.43;;
9481;SDS011;4779;48.062;11.672;2024-01-15T01:32:50;11.23;;;7.37;;
9481;SDS011;4779;48.062;11.672;2024-01-15T01:35:17;10.83;;;7.80;;
9481;SDS011;4779;48.062;11.672;2024-01-15T01:37:44;11.60;;;8.63;;
9481;SDS011;4779;48.062;11.672;2024-01-15T01:40:11;13.30;;;8.93;;
9481;SDS011;4779;48.062;11.672;2024-01-15T01:42:39;11.87;;;8.70;;
9481;SDS011;4779;48.062;11.672;2024-01-15T01:45:07;12.87;;;9.50;;
9481;SDS011;4779;48.062;11.672;2024-01-15T01:47:34;11.43;;;8.53;;
9481;SDS011;4779;48.062;11.672;2024-01-15T01:50:01;15.60;;;9.73;;
9481;SDS011;4779;48.062;11.672;2024-01-15T01:52:29;13.60;;;9.17;;
9481;SDS011;4779;48.062;11.672;2024-01-15T01:54:57;12.10;;;9.30;;
9481;SDS011;4779;48.062;11.672;2024-01-15T01:57:26;12.80;;;9.03;;
9481;SDS011;4779;48.062;11.672;2024-01-15T01:59:55;14.23;;;9.30;;
9481;SDS011;4779;48.062;11.672;2024-01-15T02:02:22;14.70;;;9.20;;
9481;SDS011;4779;48.062;11.672;2024-01-15T02:04:50;12.70;;;9.37;;
9481;SDS011;4779;48.062;11.672;2024-01-15T02:07:17;12.20;;;8.63;;
9481;SDS011;4779;48.062;11.672;2024-01-15T02:09:44;13.77;;;8.97;;
9481;SDS011;4779;48.062;11.672;2024-01-15T02:12:11;13.03;;;8.97;;
9481;SDS011;4779;48.062;11.672;2024-01-15T02:14:39;12.87;;;9.00;;
9481;SDS011;4779;48.062;11.672;2024-01-15T02:17:07;12.07;;;8.73;;
9481;SDS011;4779;48.062;11.672;2024-01-15T02:19:34;14.23;;;9.27;;
9481;SDS011;4779;48.062;11.672;2024-01-15T02:22:01;12.93;;;8.93;;
9481;SDS011;4779;48.062;11.672;2024-01-15T02:24:30;11.90;;;8.43;;
9481;SDS011;4779;48.062;11.672;2024-01-15T02:26:57;11.43;;;8.40;;
9481;SDS011;4779;48.062;11.672;2024-01-15T02:29:24;11.47;;;8.10;;
9481;SDS011;4779;48.062;11.672;2024-01-15T02:31:51;13.40;;;8.97;;
9481;SDS011;4779;48.062;11.672;2024-01-15T02:34:18;12.40;;;8.17;;
9481;SDS011;4779;48.062;11.672;2024-01-15T02:36:45;10.63;;;7.87;;
9481;SDS011;4779;48.062;11.672;2024-01-15T02:39:12;12.77;;;8.73;;
9481;SDS011;4779;48.062;11.672;2024-01-15T02:41:40;12.17;;;8.70;;
9481;SDS011;4779;48.062;11.672;2024-01-15T02:44:07;11.27;;;8.43;;
9481;SDS011;4779;48.062;11.672;2024-01-15T02:46:34;11.23;;;7.53;;
9481;SDS011;4779;48.062;11.672;2024-01-15T02:49:01;12.03;;;8.30;;
9481;SDS011;4779;48.062;11.672;2024-01-15T02:51:28;13.77;;;9.07;;
9481;SDS011;4779;48.062;11.672;2024-01-15T02:53:55;11.70;;;8.30;;
9481;SDS011;4779;48.062;11.672;2024-01-15T02:56:22;12.47;;;7.90;;
9481;SDS011;4779;48.062;11.672;2024-01-15T02:58:51;12.87;;;7.80;;
9481;SDS011;4779;48.062;11.672;2024-01-15T03:01:18;14.13;;;8.30;;
9481;SDS011;4779;48.062;11.672;2024-01-15T03:03:45;12.80;;;8.30;;
9481;SDS011;4779;48.062;11.672;2024-01-15T03:06:12;12.03;;;8.43;;
9481;SDS011;4779;48.062;11.672;2024-01-15T03:08:39;13.53;;;8.57;;
9481;SDS011;4779;48.062;11.672;2024-01-15T03:11:06;11.67;;;7.53;;
9481;SDS011;4779;48.062;11.672;2024-01-15T03:13:35;12.67;;;8.30;;
9481;SDS011;4779;48.062;11.672;2024-01-15T03:16:04;10.73;;;7.93;;
9481;SDS011;4779;48.062;11.672;2024-01-15T03:18:31;10.40;;;7.63;;
9481;SDS011;4779;48.062;11.672;2024-01-15T03:20:58;10.87;;;7.27;;
9481;SDS011;4779;48.062;11.672;2024-01-15T03:23:26;10.77;;;7.30;;
9481;SDS011;4779;48.062;11.672;2024-01-15T03:25:53;10.27;;;6.73;;
9481;SDS011;4779;48.062;11.672;2024-01-15T03:28:20;9.00;;;6.43;;
9481;SDS011;4779;48.062;11.672;2024-01-15T03:30:47;8.30;;;5.80;;
9481;SDS011;4779;48.062;11.672;2024-01-15T03:33:15;8.60;;;5.87;;
9481;SDS011;4779;48.062;11.672;2024-01-15T03:35:42;8.30;;;6.17;;
9481;SDS011;4779;48.062;11.672;2024-01-15T03:38:09;8.63;;;5.67;;
9481;SDS011;4779;48.062;11.672;2024-01-15T03:40:36;9.53;;;5.77;;
9481;SDS011;4779;48.062;11.672;2024-01-15T03:43:03;8.73;;;6.13;;
9481;SDS011;4779;48.062;11.672;2024-01-15T03:45:30;8.43;;;5.70;;
9481;SDS011;4779;48.062;11.672;2024-01-15T03:47:57;9.93;;;6.50;;
9481;SDS011;4779;48.062;11.672;2024-01-15T03:50:26;7.33;;;5.53;;
9481;SDS011;4779;48.062;11.672;2024-01-15T03:52:53;9.13;;;6.03;;
9481;SDS011;4779;48.062;11.672;2024-01-15T03:55:20;9.23;;;5.80;;
9481;SDS011;4779;48.062;11.672;2024-01-15T03:57:47;9.00;;;6.30;;
9481;SDS011;4779;48.062;11.672;2024-01-15T04:00:14;8.67;;;5.87;;
9481;SDS011;4779;48.062;11.672;2024-01-15T04:02:42;7.57;;;5.50;;
9481;SDS011;4779;48.062;11.672;2024-01-15T04:05:10;7.77;;;5.93;;
9481;SDS011;4779;48.062;11.672;2024-01-15T04:07:38;10.17;;;6.50;;
9481;SDS011;4779;48.062;11.672;2024-01-15T04:10:05;9.83;;;6.27;;
9481;SDS011;4779;48.062;11.672;2024-01-15T04:12:33;8.77;;;6.13;;
9481;SDS011;4779;48.062;11.672;2024-01-15T04:15:00;9.37;;;6.27;;
9481;SDS011;4779;48.062;11.672;2024-01-15T04:17:27;8.57;;;5.93;;
9481;SDS011;4779;48.062;11.672;2024-01-15T04:19:54;9.07;;;6.80;;
9481;SDS011;4779;48.062;11.672;2024-01-15T04:22:22;9.07;;;6.30;;
9481;SDS011;4779;48.062;11.672;2024-01-15T04:24:51;8.80;;;5.50;;
9481;SDS011;4779;48.062;11.672;2024-01-15T04:27:18;8.03;;;6.00;;
9481;SDS011;4779;48.062;11.672;2024-01-15T04:29:45;9.33;;;5.80;;
9481;SDS011;4779;48.062;11.672;2024-01-15T04:32:12;9.77;;;5.70;;
9481;SDS011;4779;48.062;11.672;2024-01-15T04:34:39;8.03;;;5.33;;
9481;SDS011;4779;48.062;11.672;2024-01-15T04:37:06;8.20;;;5.73;;
9481;SDS011;4779;48.062;11.672;2024-01-15T04:39:33;8.73;;;5.80;;
9481;SDS011;4779;48.062;11.672;2024-01-15T04:42:01;8.60;;;6.27;;
9481;SDS011;4779;48.062;11.672;2024-01-15T04:44:28;8.47;;;5.37;;
9481;SDS011;4779;48.062;11.672;2024-01-15T04:46:55;8.80;;;5.40;;
9481;SDS011;4779;48.062;11.672;2024-01-15T04:49:22;8.97;;;5.63;;
9481;SDS011;4779;48.062;11.672;2024-01-15T04:51:51;7.70;;;5.73;;
9481;SDS011;4779;48.062;11.672;2024-01-15T04:54:18;6.07;;;4.80;;
9481;SDS011;4779;48.062;11.672;2024-01-15T04:56:45;7.37;;;5.17;;
9481;SDS011;4779;48.062;11.672;2024-01-15T04:59:14;7.80;;;5.40;;
9481;SDS011;4779;48.062;11.672;2024-01-15T05:01:41;7.33;;;5.00;;
9481;SDS011;4779;48.062;11.672;2024-01-15T05:04:08;7.47;;;4.73;;
9481;SDS011;4779;48.062;11.672;2024-01-15T05:06:35;8.33;;;5.37;;
9481;SDS011;4779;48.062;11.672;2024-01-15T05:09:02;6.03;;;4.90;;
9481;SDS011;4779;48.062;11.672;2024-01-15T05:11:29;6.63;;;4.70;;
9481;SDS011;4779;48.062;11.672;2024-01-15T05:13:56;6.47;;;5.10;;
9481;SDS011;4779;48.062;11.672;2024-01-15T05:16:25;7.80;;;5.10;;
9481;SDS011;4779;48.062;11.672;2024-01-15T05:18:52;7.17;;;5.27;;
9481;SDS011;4779;48.062;11.672;2024-01-15T05:21:19;7.57;;;5.10;;
9481;SDS011;4779;48.062;11.672;2024-01-15T05:23:45;6.50;;;4.80;;
9481;SDS011;4779;48.062;11.672;2024-01-15T05:26:12;7.23;;;4.50;;
9481;SDS011;4779;48.062;11.672;2024-01-15T05:28:40;7.57;;;4.60;;
9481;SDS011;4779;48.062;11.672;2024-01-15T05:31:08;6.23;;;4.40;;
9481;SDS011;4779;48.062;11.672;2024-01-15T05:33:37;7.53;;;4.63;;
9481;SDS011;4779;48.062;11.672;2024-01-15T05:36:05;5.63;;;4.40;;
9481;SDS011;4779;48.062;11.672;2024-01-15T05:38:32;5.47;;;4.17;;
9481;SDS011;4779;48.062;11.672;2024-01-15T05:40:59;5.83;;;4.37;;
9481;SDS011;4779;48.062;11.672;2024-01-15T05:43:27;5.77;;;4.07;;
9481;SDS011;4779;48.062;11.672;2024-01-15T05:45:54;6.53;;;4.33;;
9481;SDS011;4779;48.062;11.672;2024-01-15T05:48:21;6.00;;;4.20;;
9481;SDS011;4779;48.062;11.672;2024-01-15T05:50:49;8.47;;;5.00;;
9481;SDS011;4779;48.062;11.672;2024-01-15T05:53:16;6.40;;;4.50;;
9481;SDS011;4779;48.062;11.672;2024-01-15T05:55:43;6.97;;;4.50;;
9481;SDS011;4779;48.062;11.672;2024-01-15T05:58:10;9.47;;;5.53;;
9481;SDS011;4779;48.062;11.672;2024-01-15T06:00:37;6.37;;;4.73;;
9481;SDS011;4779;48.062;11.672;2024-01-15T06:03:04;11.00;;;6.73;;
9481;SDS011;4779;48.062;11.672;2024-01-15T06:05:31;7.73;;;5.53;;
9481;SDS011;4779;48.062;11.672;2024-01-15T06:07:59;8.00;;;4.90;;
9481;SDS011;4779;48.062;11.672;2024-01-15T06:10:26;7.47;;;5.00;;
9481;SDS011;4779;48.062;11.672;2024-01-15T06:12:53;7.47;;;5.50;;
9481;SDS011;4779;48.062;11.672;2024-01-15T06:15:20;7.40;;;5.27;;
9481;SDS011;4779;48.062;11.672;2024-01-15T06:17:47;7.40;;;5.13;;
9481;SDS011;4779;48.062;11.672;2024-01-15T06:20:14;6.73;;;5.17;;
9481;SDS011;4779;48.062;11.672;2024-01-15T06:22:41;8.47;;;5.47;;
9481;SDS011;4779;48.062;11.672;2024-01-15T06:25:10;9.90;;;5.50;;
9481;SDS011;4779;48.062;11.672;2024-01-15T06:27:37;10.80;;;5.10;;
9481;SDS011;4779;48.062;11.672;2024-01-15T06:30:04;8.10;;;4.97;;
9481;SDS011;4779;48.062;11.672;2024-01-15T06:32:32;9.33;;;5.70;;
9481;SDS011;4779;48.062;11.672;2024-01-15T06:34:59;9.03;;;6.10;;
9481;SDS011;4779;48.062;11.672;2024-01-15T06:37:26;7.43;;;5.20;;
9481;SDS011;4779;48.062;11.672;2024-01-15T06:39:53;8.70;;;5.10;;
9481;SDS011;4779;48.062;11.672;2024-01-15T06:42:21;6.73;;;4.70;;
9481;SDS011;4779;48.062;11.672;2024-01-15T06:44:48;7.40;;;5.27;;
9481;SDS011;4779;48.062;11.672;2024-01-15T06:47:16;7.63;;;5.37;;
9481;SDS011;4779;48.062;11.672;2024-01-15T06:49:43;7.27;;;4.97;;
9481;SDS011;4779;48.062;11.672;2024-01-15T06:52:14;9.87;;;5.90;;
9481;SDS011;4779;48.062;11.672;2024-01-15T06:54:41;7.47;;;5.17;;
9481;SDS011;4779;48.062;11.672;2024-01-15T06:57:08;7.57;;;5.27;;
9481;SDS011;4779;48.062;11.672;2024-01-15T06:59:36;7.97;;;5.73;;
9481;SDS011;4779;48.062;11.672;2024-01-15T07:02:03;10.07;;;6.43;;
9481;SDS011;4779;48.062;11.672;2024-01-15T07:04:30;7.83;;;5.67;;
9481;SDS011;4779;48.062;11.672;2024-01-15T07:06:58;8.40;;;5.60;;
9481;SDS011;4779;48.062;11.672;2024-01-15T07:09:25;8.27;;;6.00;;
9481;SDS011;4779;48.062;11.672;2024-01-15T07:11:52;7.67;;;5.47;;
9481;SDS011;4779;48.062;11.672;2024-01-15T07:14:19;9.37;;;5.87;;
9481;SDS011;4779;48.062;11.672;2024-01-15T07:16:47;8.90;;;5.80;;
9481;SDS011;4779;48.062;11.672;2024-01-15T07:19:14;7.77;;;5.30;;
9481;SDS011;4779;48.062;11.672;2024-01-15T07:21:42;8.63;;;4.97;;
9481;SDS011;4779;48.062;11.672;2024-01-15T07:24:09;7.77;;;5.50;;
9481;SDS011;4779;48.062;11.672;2024-01-15T07:26:36;6.80;;;5.50;;
9481;SDS011;4779;48.062;11.672;2024-01-15T07:29:03;8.03;;;5.67;;
9481;SDS011;4779;48.062;11.672;2024-01-15T07:31:30;8.80;;;5.80;;
9481;SDS011;4779;48.062;11.672;2024-01-15T07:34:00;7.37;;;5.07;;
9481;SDS011;4779;48.062;11.672;2024-01-15T07:36:27;8.53;;;5.60;;
9481;SDS011;4779;48.062;11.672;2024-01-15T07:38:54;8.73;;;5.53;;
9481;SDS011;4779;48.062;11.672;2024-01-15T07:41:21;9.53;;;5.87;;
9481;SDS011;4779;48.062;11.672;2024-01-15T07:43:54;8.43;;;5.67;;
9481;SDS011;4779;48.062;11.672;2024-01-15T07:46:21;7.93;;;5.63;;
9481;SDS011;4779;48.062;11.672;2024-01-15T07:48:50;10.30;;;6.10;;
9481;SDS011;4779;48.062;11.672;2024-01-15T07:51:22;8.47;;;5.63;;
9481;SDS011;4779;48.062;11.672;2024-01-15T07:53:49;8.43;;;5.47;;
9481;SDS011;4779;48.062;11.672;2024-01-15T07:56:16;7.63;;;5.77;;
9481;SDS011;4779;48.062;11.672;2024-01-15T07:58:43;8.57;;;5.63;;
9481;SDS011;4779;48.062;11.672;2024-01-15T08:01:10;7.60;;;5.50;;
9481;SDS011;4779;48.062;11.672;2024-01-15T08:03:37;7.93;;;5.80;;
9481;SDS011;4779;48.062;11.672;2024-01-15T08:06:05;9.63;;;5.70;;
9481;SDS011;4779;48.062;11.672;2024-01-15T08:08:36;8.60;;;5.37;;
9481;SDS011;4779;48.062;11.672;2024-01-15T08:11:03;8.30;;;5.43;;
9481;SDS011;4779;48.062;11.672;2024-01-15T08:13:30;8.33;;;5.23;;
9481;SDS011;4779;48.062;11.672;2024-01-15T08:15:57;8.57;;;5.47;;
9481;SDS011;4779;48.062;11.672;2024-01-15T08:18:25;8.40;;;6.00;;
9481;SDS011;4779;48.062;11.672;2024-01-15T08:20:52;8.53;;;6.00;;
9481;SDS011;4779;48.062;11.672;2024-01-15T08:23:19;6.70;;;5.17;;
9481;SDS011;4779;48.062;11.672;2024-01-15T08:25:48;8.27;;;5.33;;
9481;SDS011;4779;48.062;11.672;2024-01-15T08:28:15;8.67;;;5.60;;
9481;SDS011;4779;48.062;11.672;2024-01-15T08:30:43;8.77;;;5.93;;
9481;SDS011;4779;48.062;11.672;2024-01-15T08:33:10;8.30;;;5.70;;
9481;SDS011;4779;48.062;11.672;2024-01-15T08:35:38;7.93;;;5.63;;
9481;SDS011;4779;48.062;11.672;2024-01-15T08:38:14;7.07;;;5.23;;
9481;SDS011;4779;48.062;11.672;2024-01-15T08:40:41;9.23;;;6.10;;
9481;SDS011;4779;48.062;11.672;2024-01-15T08:43:09;11.27;;;7.73;;
9481;SDS011;4779;48.062;11.672;2024-01-15T08:45:36;9.20;;;6.33;;
9481;SDS011;4779;48.062;11.672;2024-01-15T08:48:03;7.40;;;5.57;;
9481;SDS011;4779;48.062;11.672;2024-01-15T08:50:31;7.77;;;5.60;;
9481;SDS011;4779;48.062;11.672;2024-01-15T08:52:58;9.43;;;6.43;;
9481;SDS011;4779;48.062;11.672;2024-01-15T08:55:25;9.03;;;5.60;;
9481;SDS011;4779;48.062;11.672;2024-01-15T08:57:52;8.37;;;5.77;;
9481;SDS011;4779;48.062;11.672;2024-01-15T09:00:20;9.47;;;6.13;;
9481;SDS011;4779;48.062;11.672;2024-01-15T09:02:48;10.07;;;6.37;;
9481;SDS011;4779;48.062;11.672;2024-01-15T09:05:17;8.97;;;5.93;;
9481;SDS011;4779;48.062;11.672;2024-01-15T09:07:44;8.80;;;6.00;;
9481;SDS011;4779;48.062;11.672;2024-01-15T09:10:15;8.00;;;5.80;;
9481;SDS011;4779;48.062;11.672;2024-01-15T09:12:42;8.30;;;6.00;;
9481;SDS011;4779;48.062;11.672;2024-01-15T09:15:12;8.23;;;6.00;;
9481;SDS011;4779;48.062;11.672;2024-01-15T09:17:40;8.87;;;5.67;;
9481;SDS011;4779;48.062;11.672;2024-01-15T09:20:08;8.37;;;6.10;;
9481;SDS011;4779;48.062;11.672;2024-01-15T09:22:37;9.73;;;6.53;;
9481;SDS011;4779;48.062;11.672;2024-01-15T09:25:06;9.90;;;6.50;;
9481;SDS011;4779;48.062;11.672;2024-01-15T09:27:33;9.40;;;6.20;;
9481;SDS011;4779;48.062;11.672;2024-01-15T09:30:00;7.17;;;5.83;;
9481;SDS011;4779;48.062;11.672;2024-01-15T09:32:27;9.23;;;5.97;;
9481;SDS011;4779;48.062;11.672;2024-01-15T09:34:56;8.43;;;6.17;;
9481;SDS011;4779;48.062;11.672;2024-01-15T09:37:23;8.60;;;5.77;;
9481;SDS011;4779;48.062;11.672;2024-01-15T09:39:50;8.17;;;5.97;;
9481;SDS011;4779;48.062;11.672;2024-01-15T09:42:16;7.63;;;5.37;;
9481;SDS011;4779;48.062;11.672;2024-01-15T09:44:44;9.90;;;5.93;;
9481;SDS011;4779;48.062;11.672;2024-01-15T09:47:12;7.27;;;5.30;;
9481;SDS011;4779;48.062;11.672;2024-01-15T09:49:41;8.63;;;5.50;;
9481;SDS011;4779;48.062;11.672;2024-01-15T09:52:09;9.13;;;4.73;;
9481;SDS011;4779;48.062;11.672;2024-01-15T09:54:37;6.50;;;4.63;;
9481;SDS011;4779;48.062;11.672;2024-01-15T09:57:05;6.30;;;4.60;;
9481;SDS011;4779;48.062;11.672;2024-01-15T09:59:32;7.73;;;4.73;;
9481;SDS011;4779;48.062;11.672;2024-01-15T10:02:00;7.30;;;4.30;;
9481;SDS011;4779;48.062;11.672;2024-01-15T10:04:28;6.43;;;4.53;;
9481;SDS011;4779;48.062;11.672;2024-01-15T10:06:55;5.53;;;4.03;;
9481;SDS011;4779;48.062;11.672;2024-01-15T10:09:25;5.70;;;4.30;;
9481;SDS011;4779;48.062;11.672;2024-01-15T10:11:52;5.63;;;4.33;;
9481;SDS011;4779;48.062;11.672;2024-01-15T10:14:20;5.53;;;4.00;;
9481;SDS011;4779;48.062;11.672;2024-01-15T10:16:47;6.67;;;4.17;;
9481;SDS011;4779;48.062;11.672;2024-01-15T10:19:14;7.27;;;4.03;;
9481;SDS011;4779;48.062;11.672;2024-01-15T10:21:41;5.23;;;3.60;;
9481;SDS011;4779;48.062;11.672;2024-01-15T10:24:08;6.43;;;4.27;;
9481;SDS011;4779;48.062;11.672;2024-01-15T10:26:36;6.13;;;4.20;;
9481;SDS011;4779;48.062;11.672;2024-01-15T10:29:03;6.30;;;3.40;;
9481;SDS011;4779;48.062;11.672;2024-01-15T10:31:31;6.60;;;3.97;;
9481;SDS011;4779;48.062;11.672;2024-01-15T10:34:03;4.63;;;3.33;;
9481;SDS011;4779;48.062;11.672;2024-01-15T10:36:40;4.77;;;3.30;;
9481;SDS011;4779;48.062;11.672;2024-01-15T10:39:20;4.93;;;3.37;;
9481;SDS011;4779;48.062;11.672;2024-01-15T10:41:53;3.93;;;3.53;;
9481;SDS011;4779;48.062;11.672;2024-01-15T10:44:20;4.23;;;3.37;;
9481;SDS011;4779;48.062;11.672;2024-01-15T10:46:47;5.37;;;3.77;;
9481;SDS011;4779;48.062;11.672;2024-01-15T10:49:15;4.90;;;3.63;;
9481;SDS011;4779;48.062;11.672;2024-01-15T10:51:44;4.70;;;3.50;;
9481;SDS011;4779;48.062;11.672;2024-01-15T10:54:11;4.37;;;3.07;;
9481;SDS011;4779;48.062;11.672;2024-01-15T10:56:39;4.53;;;3.17;;
9481;SDS011;4779;48.062;11.672;2024-01-15T10:59:09;4.13;;;3.13;;
9481;SDS011;4779;48.062;11.672;2024-01-15T11:01:37;4.73;;;3.07;;
9481;SDS011;4779;48.062;11.672;2024-01-15T11:04:05;4.27;;;2.70;;
9481;SDS011;4779;48.062;11.672;2024-01-15T11:06:40;2.90;;;2.50;;
9481;SDS011;4779;48.062;11.672;2024-01-15T11:09:09;3.60;;;2.63;;
9481;SDS011;4779;48.062;11.672;2024-01-15T11:11:39;3.63;;;2.67;;
9481;SDS011;4779;48.062;11.672;2024-01-15T11:14:07;4.43;;;2.83;;
9481;SDS011;4779;48.062;11.672;2024-01-15T11:19:22;3.13;;;2.60;;
9481;SDS011;4779;48.062;11.672;2024-01-15T11:21:49;3.87;;;3.00;;
9481;SDS011;4779;48.062;11.672;2024-01-15T11:27:10;3.93;;;2.90;;
9481;SDS011;4779;48.062;11.672;2024-01-15T11:29:37;3.97;;;2.50;;
9481;SDS011;4779;48.062;11.672;2024-01-15T11:32:06;4.37;;;2.30;;
9481;SDS011;4779;48.062;11.672;2024-01-15T11:34:52;3.33;;;2.37;;
9481;SDS011;4779;48.062;11.672;2024-01-15T11:37:23;3.63;;;2.00;;
9481;SDS011;4779;48.062;11.672;2024-01-15T11:39:51;2.90;;;2.53;;
9481;SDS011;4779;48.062;11.672;2024-01-15T11:42:19;3.17;;;2.50;;
9481;SDS011;4779;48.062;11.672;2024-01-15T11:44:47;2.90;;;2.50;;
9481;SDS011;4779;48.062;11.672;2024-01-15T11:47:16;2.80;;;2.20;;
9481;SDS011;4779;48.062;11.672;2024-01-15T11:50:04;3.13;;;2.57;;
9481;SDS011;4779;48.062;11.672;2024-01-15T11:52:34;3.00;;;2.30;;
9481;SDS011;4779;48.062;11.672;2024-01-15T11:55:06;4.23;;;2.60;;
9481;SDS011;4779;48.062;11.672;2024-01-15T11:57:40;3.87;;;2.37;;
9481;SDS011;4779;48.062;11.672;2024-01-15T12:00:10;3.67;;;2.43;;
9481;SDS011;4779;48.062;11.672;2024-01-15T12:02:39;3.70;;;2.57;;
9481;SDS011;4779;48.062;11.672;2024-01-15T12:05:07;4.60;;;2.90;;
9481;SDS011;4779;48.062;11.672;2024-01-15T12:07:35;4.00;;;2.93;;
9481;SDS011;4779;48.062;11.672;2024-01-15T12:10:02;2.50;;;2.03;;
9481;SDS011;4779;48.062;11.672;2024-01-15T12:12:32;3.77;;;2.40;;
9481;SDS011;4779;48.062;11.672;2024-01-15T12:15:06;3.10;;;2.23;;
9481;SDS011;4779;48.062;11.672;2024-01-15T12:17:34;4.07;;;2.43;;
9481;SDS011;4779;48.062;11.672;2024-01-15T12:20:03;2.23;;;1.80;;
9481;SDS011;4779;48.062;11.672;2024-01-15T12:22:31;2.37;;;1.90;;
9481;SDS011;4779;48.062;11.672;2024-01-15T12:24:58;2.60;;;2.37;;
9481;SDS011;4779;48.062;11.672;2024-01-15T12:27:26;4.93;;;2.03;;
9481;SDS011;4779;48.062;11.672;2024-01-15T12:29:53;2.00;;;1.80;;
9481;SDS011;4779;48.062;11.672;2024-01-15T12:32:20;2.60;;;2.20;;
9481;SDS011;4779;48.062;11.672;2024-01-15T12:34:48;3.00;;;2.20;;
9481;SDS011;4779;48.062;11.672;2024-01-15T12:37:19;3.20;;;2.63;;
9481;SDS011;4779;48.062;11.672;2024-01-15T12:39:46;3.03;;;2.33;;
9481;SDS011;4779;48.062;11.672;2024-01-15T12:42:14;3.10;;;2.43;;
9481;SDS011;4779;48.062;11.672;2024-01-15T12:44:42;2.87;;;2.20;;
9481;SDS011;4779;48.062;11.672;2024-01-15T12:47:09;1.80;;;1.70;;
9481;SDS011;4779;48.062;11.672;2024-01-15T12:49:36;2.53;;;2.10;;
9481;SDS011;4779;48.062;11.672;2024-01-15T12:52:07;3.37;;;2.60;;
9481;SDS011;4779;48.062;11.672;2024-01-15T12:54:36;2.70;;;2.33;;
9481;SDS011;4779;48.062;11.672;2024-01-15T12:57:03;3.20;;;2.67;;
9481;SDS011;4779;48.062;11.672;2024-01-15T12:59:30;3.33;;;2.70;;
9481;SDS011;4779;48.062;11.672;2024-01-15T13:01:57;3.53;;;2.67;;
9481;SDS011;4779;48.062;11.672;2024-01-15T13:04:24;3.13;;;2.70;;
9481;SDS011;4779;48.062;11.672;2024-01-15T13:06:52;4.03;;;2.97;;
9481;SDS011;4779;48.062;11.672;2024-01-15T13:09:19;4.57;;;3.00;;
9481;SDS011;4779;48.062;11.672;2024-01-15T13:11:47;3.87;;;3.00;;
9481;SDS011;4779;48.062;11.672;2024-01-15T13:14:14;3.37;;;2.93;;
9481;SDS011;4779;48.062;11.672;2024-01-15T13:16:41;3.87;;;2.80;;
9481;SDS011;4779;48.062;11.672;2024-01-15T13:19:09;3.97;;;3.10;;
9481;SDS011;4779;48.062;11.672;2024-01-15T13:21:38;5.83;;;3.57;;
9481;SDS011;4779;48.062;11.672;2024-01-15T13:24:05;7.63;;;4.70;;
9481;SDS011;4779;48.062;11.672;2024-01-15T13:26:32;6.13;;;4.23;;
9481;SDS011;4779;48.062;11.672;2024-01-15T13:29:01;7.90;;;4.60;;
9481;SDS011;4779;48.062;11.672;2024-01-15T13:31:28;7.13;;;4.07;;
9481;SDS011;4779;48.062;11.672;2024-01-15T13:33:59;6.40;;;3.87;;
9481;SDS011;4779;48.062;11.672;2024-01-15T13:36:26;5.57;;;3.30;;
9481;SDS011;4779;48.062;11.672;2024-01-15T13:38:53;4.87;;;3.27;;
9481;SDS011;4779;48.062;11.672;2024-01-15T13:41:21;3.27;;;2.93;;
9481;SDS011;4779;48.062;11.672;2024-01-15T13:43:52;4.53;;;2.93;;
9481;SDS011;4779;48.062;11.672;2024-01-15T13:46:22;4.50;;;3.17;;
9481;SDS011;4779;48.062;11.672;2024-01-15T13:48:51;4.67;;;3.30;;
9481;SDS011;4779;48.062;11.672;2024-01-15T13:51:18;3.90;;;2.90;;
9481;SDS011;4779;48.062;11.672;2024-01-15T13:53:47;2.97;;;2.50;;
9481;SDS011;4779;48.062;11.672;2024-01-15T13:56:14;5.50;;;3.30;;
9481;SDS011;4779;48.062;11.672;2024-01-15T13:58:42;4.53;;;3.20;;
9481;SDS011;4779;48.062;11.672;2024-01-15T14:01:09;5.30;;;3.00;;
9481;SDS011;4779;48.062;11.672;2024-01-15T14:03:40;3.70;;;3.07;;
9481;SDS011;4779;48.062;11.672;2024-01-15T14:06:07;5.13;;;2.90;;
9481;SDS011;4779;48.062;11.672;2024-01-15T14:08:35;4.67;;;3.10;;
9481;SDS011;4779;48.062;11.672;2024-01-15T14:11:03;3.57;;;2.97;;
9481;SDS011;4779;48.062;11.672;2024-01-15T14:13:32;3.80;;;3.20;;
9481;SDS011;4779;48.062;11.672;2024-01-15T14:15:59;3.03;;;2.63;;
9481;SDS011;4779;48.062;11.672;2024-01-15T14:18:26;3.53;;;2.13;;
9481;SDS011;4779;48.062;11.672;2024-01-15T14:20:54;3.63;;;2.70;;
9481;SDS011;4779;48.062;11.672;2024-01-15T14:23:21;3.43;;;3.00;;
9481;SDS011;4779;48.062;11.672;2024-01-15T14:25:48;3.27;;;2.93;;
9481;SDS011;4779;48.062;11.672;2024-01-15T14:28:15;2.97;;;2.63;;
9481;SDS011;4779;48.062;11.672;2024-01-15T14:30:42;3.03;;;2.50;;
9481;SDS011;4779;48.062;11.672;2024-01-15T14:33:09;2.53;;;2.33;;
9481;SDS011;4779;48.062;11.672;2024-01-15T14:35:36;3.23;;;2.70;;
9481;SDS011;4779;48.062;11.672;2024-01-15T14:38:05;3.70;;;2.43;;
9481;SDS011;4779;48.062;11.672;2024-01-15T14:40:32;3.80;;;2.87;;
9481;SDS011;4779;48.062;11.672;2024-01-15T14:43:01;3.80;;;2.90;;
9481;SDS011;4779;48.062;11.672;2024-01-15T14:45:33;3.73;;;3.10;;
9481;SDS011;4779;48.062;11.672;2024-01-15T14:48:00;3.90;;;2.80;;
9481;SDS011;4779;48.062;11.672;2024-01-15T14:50:29;4.03;;;2.93;;
9481;SDS011;4779;48.062;11.672;2024-01-15T14:52:56;3.27;;;2.80;;
9481;SDS011;4779;48.062;11.672;2024-01-15T14:55:25;4.13;;;2.80;;
9481;SDS011;4779;48.062;11.672;2024-01-15T14:57:52;3.80;;;3.00;;
9481;SDS011;4779;48.062;11.672;2024-01-15T15:00:19;3.37;;;3.00;;
9481;SDS011;4779;48.062;11.672;2024-01-15T15:02:47;4.43;;;2.60;;
9481;SDS011;4779;48.062;11.672;2024-01-15T15:05:14;3.53;;;2.93;;
9481;SDS011;4779;48.062;11.672;2024-01-15T15:07:42;3.30;;;2.47;;
9481;SDS011;4779;48.062;11.672;2024-01-15T15:10:09;3.90;;;2.67;;